sensor_id;sensor_type;location;lat;lon;timestamp;temperature;humidity
59007;DHT22;44792;52.760;6.726;2022-07-10T00:00:35;15.40;99.90
59007;DHT22;44792;52.760;6.726;2022-07-10T00:03:02;15.40;99.90
59007;DHT22;44792;52.760;6.726;2022-07-10T00:05:28;15.30;99.90
59007;DHT22;44792;52.760;6.726;2022-07-10T00:07:54;15.30;99.90
59007;DHT22;44792;52.760;6.726;2022-07-10T00:10:21;15.30;99.90
59007;DHT22;44792;52.760;6.726;2022-07-10T00:12:48;15.30;99.90
59007;DHT22;44792;52.760;6.726;2022-07-10T00:15:15;15.30;99.90
59007;DHT22;44792;52.760;6.726;2022-07-10T00:17:42;15.30;99.90
59007;DHT22;44792;52.760;6.726;2022-07-10T00:20:09;15.30;99.90
59007;DHT22;44792;52.760;6.726;2022-07-10T00:22:35;15.30;99.90
59007;DHT22;44792;52.760;6.726;2022-07-10T00:25:02;15.20;99.90
59007;DHT22;44792;52.760;6.726;2022-07-10T00:27:28;15.20;99.90
59007;DHT22;44792;52.760;6.726;2022-07-10T00:29:54;15.10;99.90
59007;DHT22;44792;52.760;6.726;2022-07-10T00:32:19;15.20;99.90
59007;DHT22;44792;52.760;6.726;2022-07-10T00:34:45;15.10;99.90
59007;DHT22;44792;52.760;6.726;2022-07-10T00:37:11;15.20;99.90
59007;DHT22;44792;52.760;6.726;2022-07-10T00:39:37;15.20;99.90
59007;DHT22;44792;52.760;6.726;2022-07-10T00:42:10;15.20;99.90
59007;DHT22;44792;52.760;6.726;2022-07-10T00:44:37;15.10;99.90
59007;DHT22;44792;52.760;6.726;2022-07-10T00:47:04;15.10;99.90
59007;DHT22;44792;52.760;6.726;2022-07-10T00:49:31;15.20;99.90
59007;DHT22;44792;52.760;6.726;2022-07-10T00:51:58;15.10;99.90
59007;DHT22;44792;52.760;6.726;2022-07-10T00:54:24;15.10;99.90
59007;DHT22;44792;52.760;6.726;2022-07-10T00:56:50;15.10;99.90
59007;DHT22;44792;52.760;6.726;2022-07-10T00:59:15;15.10;99.90
59007;DHT22;44792;52.760;6.726;2022-07-10T01:01:41;15.10;99.90
59007;DHT22;44792;52.760;6.726;2022-07-10T01:04:06;15.10;99.90
59007;DHT22;44792;52.760;6.726;2022-07-10T01:06:32;15.10;99.90
59007;DHT22;44792;52.760;6.726;2022-07-10T01:08:58;15.10;99.90
59007;DHT22;44792;52.760;6.726;2022-07-10T01:11:23;15.10;99.90
59007;DHT22;44792;52.760;6.726;2022-07-10T01:13:49;15.20;99.90
59007;DHT22;44792;52.760;6.726;2022-07-10T01:16:15;15.10;99.90
59007;DHT22;44792;52.760;6.726;2022-07-10T01:18:41;15.20;99.90
59007;DHT22;44792;52.760;6.726;2022-07-10T01:21:26;15.20;99.90
59007;DHT22;44792;52.760;6.726;2022-07-10T01:23:51;15.20;99.90
59007;DHT22;44792;52.760;6.726;2022-07-10T01:26:18;15.10;99.90
59007;DHT22;44792;52.760;6.726;2022-07-10T01:28:47;15.10;99.90
59007;DHT22;44792;52.760;6.726;2022-07-10T01:31:13;15.10;99.90
59007;DHT22;44792;52.760;6.726;2022-07-10T01:33:39;15.10;99.90
59007;DHT22;44792;52.760;6.726;2022-07-10T01:36:05;15.10;99.90
59007;DHT22;44792;52.760;6.726;2022-07-10T01:38:30;15.10;99.90
59007;DHT22;44792;52.760;6.726;2022-07-10T01:40:56;15.10;99.90
59007;DHT22;44792;52.760;6.726;2022-07-10T01:43:22;15.10;99.90
59007;DHT22;44792;52.760;6.726;2022-07-10T01:45:47;15.10;99.90
59007;DHT22;44792;52.760;6.726;2022-07-10T01:48:14;15.10;99.90
59007;DHT22;44792;52.760;6.726;2022-07-10T01:50:39;15.10;99.90
59007;DHT22;44792;52.760;6.726;2022-07-10T01:53:05;15.10;99.90
59007;DHT22;44792;52.760;6.726;2022-07-10T01:55:31;15.10;99.90
59007;DHT22;44792;52.760;6.726;2022-07-10T01:57:57;15.00;99.90
59007;DHT22;44792;52.760;6.726;2022-07-10T02:00:22;15.00;99.90
59007;DHT22;44792;52.760;6.726;2022-07-10T02:02:49;14.90;99.90
59007;DHT22;44792;52.760;6.726;2022-07-10T02:05:34;14.90;99.90
59007;DHT22;44792;52.760;6.726;2022-07-10T02:08:00;14.80;99.90
59007;DHT22;44792;52.760;6.726;2022-07-10T02:10:28;14.90;99.90
59007;DHT22;44792;52.760;6.726;2022-07-10T02:12:54;14.80;99.90
59007;DHT22;44792;52.760;6.726;2022-07-10T02:15:21;14.80;99.90
59007;DHT22;44792;52.760;6.726;2022-07-10T02:17:47;14.80;99.90
59007;DHT22;44792;52.760;6.726;2022-07-10T02:20:13;14.80;99.90
59007;DHT22;44792;52.760;6.726;2022-07-10T02:22:38;14.70;99.90
59007;DHT22;44792;52.760;6.726;2022-07-10T02:25:04;14.70;99.90
59007;DHT22;44792;52.760;6.726;2022-07-10T02:27:30;14.70;99.90
59007;DHT22;44792;52.760;6.726;2022-07-10T02:29:56;14.70;99.90
59007;DHT22;44792;52.760;6.726;2022-07-10T02:32:21;14.60;99.90
59007;DHT22;44792;52.760;6.726;2022-07-10T02:34:47;14.60;99.90
59007;DHT22;44792;52.760;6.726;2022-07-10T02:37:13;14.60;99.90
59007;DHT22;44792;52.760;6.726;2022-07-10T02:39:38;14.60;99.90
59007;DHT22;44792;52.760;6.726;2022-07-10T02:42:04;14.60;99.90
59007;DHT22;44792;52.760;6.726;2022-07-10T02:44:29;14.50;99.90
59007;DHT22;44792;52.760;6.726;2022-07-10T02:46:55;14.50;99.90
59007;DHT22;44792;52.760;6.726;2022-07-10T02:49:21;14.60;99.90
59007;DHT22;44792;52.760;6.726;2022-07-10T02:51:46;14.50;99.90
59007;DHT22;44792;52.760;6.726;2022-07-10T02:54:12;14.50;99.90
59007;DHT22;44792;52.760;6.726;2022-07-10T02:56:37;14.40;99.90
59007;DHT22;44792;52.760;6.726;2022-07-10T02:59:03;14.40;99.90
59007;DHT22;44792;52.760;6.726;2022-07-10T03:01:28;14.30;99.90
59007;DHT22;44792;52.760;6.726;2022-07-10T03:03:54;14.30;99.90
59007;DHT22;44792;52.760;6.726;2022-07-10T03:06:20;14.40;99.90
59007;DHT22;44792;52.760;6.726;2022-07-10T03:08:45;14.40;99.90
59007;DHT22;44792;52.760;6.726;2022-07-10T03:11:11;14.40;99.90
59007;DHT22;44792;52.760;6.726;2022-07-10T03:13:36;14.30;99.90
59007;DHT22;44792;52.760;6.726;2022-07-10T03:16:02;14.30;99.90
59007;DHT22;44792;52.760;6.726;2022-07-10T03:18:28;14.20;99.90
59007;DHT22;44792;52.760;6.726;2022-07-10T03:20:53;14.30;99.90
59007;DHT22;44792;52.760;6.726;2022-07-10T03:23:19;14.20;99.90
59007;DHT22;44792;52.760;6.726;2022-07-10T03:25:45;14.20;99.90
59007;DHT22;44792;52.760;6.726;2022-07-10T03:28:10;14.20;99.90
59007;DHT22;44792;52.760;6.726;2022-07-10T03:30:36;14.20;99.90
59007;DHT22;44792;52.760;6.726;2022-07-10T03:33:02;14.10;99.90
59007;DHT22;44792;52.760;6.726;2022-07-10T03:35:29;14.20;99.90
59007;DHT22;44792;52.760;6.726;2022-07-10T03:37:56;14.10;99.90
59007;DHT22;44792;52.760;6.726;2022-07-10T03:40:22;14.10;99.90
59007;DHT22;44792;52.760;6.726;2022-07-10T03:42:48;14.10;99.90
59007;DHT22;44792;52.760;6.726;2022-07-10T03:45:13;14.10;99.90
59007;DHT22;44792;52.760;6.726;2022-07-10T03:47:39;14.10;99.90
59007;DHT22;44792;52.760;6.726;2022-07-10T03:50:05;14.20;99.90
59007;DHT22;44792;52.760;6.726;2022-07-10T03:52:31;14.20;99.90
59007;DHT22;44792;52.760;6.726;2022-07-10T03:54:56;14.20;99.90
59007;DHT22;44792;52.760;6.726;2022-07-10T03:57:22;14.20;99.90
59007;DHT22;44792;52.760;6.726;2022-07-10T04:00:07;14.30;99.90
59007;DHT22;44792;52.760;6.726;2022-07-10T04:02:33;14.30;99.90
59007;DHT22;44792;52.760;6.726;2022-07-10T04:04:58;14.40;99.90
59007;DHT22;44792;52.760;6.726;2022-07-10T04:07:24;14.40;99.90
59007;DHT22;44792;52.760;6.726;2022-07-10T04:09:49;14.40;99.90
59007;DHT22;44792;52.760;6.726;2022-07-10T04:12:15;14.40;99.90
59007;DHT22;44792;52.760;6.726;2022-07-10T04:14:41;14.50;99.90
59007;DHT22;44792;52.760;6.726;2022-07-10T04:17:06;14.50;99.90
59007;DHT22;44792;52.760;6.726;2022-07-10T04:19:32;14.50;99.90
59007;DHT22;44792;52.760;6.726;2022-07-10T04:21:57;14.50;99.90
59007;DHT22;44792;52.760;6.726;2022-07-10T04:24:23;14.50;99.90
59007;DHT22;44792;52.760;6.726;2022-07-10T04:26:49;14.50;99.90
59007;DHT22;44792;52.760;6.726;2022-07-10T04:29:14;14.50;99.90
59007;DHT22;44792;52.760;6.726;2022-07-10T04:31:40;14.50;99.90
59007;DHT22;44792;52.760;6.726;2022-07-10T04:34:05;14.50;99.90
59007;DHT22;44792;52.760;6.726;2022-07-10T04:36:31;14.60;99.90
59007;DHT22;44792;52.760;6.726;2022-07-10T04:38:56;14.50;99.90
59007;DHT22;44792;52.760;6.726;2022-07-10T04:41:22;14.60;99.90
59007;DHT22;44792;52.760;6.726;2022-07-10T04:43:48;14.60;99.90
59007;DHT22;44792;52.760;6.726;2022-07-10T04:46:13;14.60;99.90
59007;DHT22;44792;52.760;6.726;2022-07-10T04:48:39;14.60;99.90
59007;DHT22;44792;52.760;6.726;2022-07-10T04:51:04;14.60;99.90
59007;DHT22;44792;52.760;6.726;2022-07-10T04:53:30;14.70;99.90
59007;DHT22;44792;52.760;6.726;2022-07-10T04:55:56;14.60;99.90
59007;DHT22;44792;52.760;6.726;2022-07-10T04:58:21;14.70;99.90
59007;DHT22;44792;52.760;6.726;2022-07-10T05:00:47;14.70;99.90
59007;DHT22;44792;52.760;6.726;2022-07-10T05:03:12;14.70;99.90
59007;DHT22;44792;52.760;6.726;2022-07-10T05:05:38;14.70;99.90
59007;DHT22;44792;52.760;6.726;2022-07-10T05:08:04;14.70;99.90
59007;DHT22;44792;52.760;6.726;2022-07-10T05:10:30;14.70;99.90
59007;DHT22;44792;52.760;6.726;2022-07-10T05:12:55;14.80;99.90
59007;DHT22;44792;52.760;6.726;2022-07-10T05:15:21;14.80;99.90
59007;DHT22;44792;52.760;6.726;2022-07-10T05:17:46;14.80;99.90
59007;DHT22;44792;52.760;6.726;2022-07-10T05:20:12;14.90;99.90
59007;DHT22;44792;52.760;6.726;2022-07-10T05:22:38;14.90;99.90
59007;DHT22;44792;52.760;6.726;2022-07-10T05:25:04;14.90;99.90
59007;DHT22;44792;52.760;6.726;2022-07-10T05:27:30;14.90;99.90
59007;DHT22;44792;52.760;6.726;2022-07-10T05:29:55;14.90;99.90
59007;DHT22;44792;52.760;6.726;2022-07-10T05:32:21;15.00;99.90
59007;DHT22;44792;52.760;6.726;2022-07-10T05:34:47;15.00;99.90
59007;DHT22;44792;52.760;6.726;2022-07-10T05:37:12;15.10;99.90
59007;DHT22;44792;52.760;6.726;2022-07-10T05:39:38;15.10;99.90
59007;DHT22;44792;52.760;6.726;2022-07-10T05:42:04;15.10;99.90
59007;DHT22;44792;52.760;6.726;2022-07-10T05:44:29;15.20;99.90
59007;DHT22;44792;52.760;6.726;2022-07-10T05:46:55;15.20;99.90
59007;DHT22;44792;52.760;6.726;2022-07-10T05:49:21;15.20;99.90
59007;DHT22;44792;52.760;6.726;2022-07-10T05:51:47;15.20;99.90
59007;DHT22;44792;52.760;6.726;2022-07-10T05:54:12;15.30;99.90
59007;DHT22;44792;52.760;6.726;2022-07-10T05:56:38;15.20;99.90
59007;DHT22;44792;52.760;6.726;2022-07-10T05:59:03;15.30;99.90
59007;DHT22;44792;52.760;6.726;2022-07-10T06:01:29;15.30;99.90
59007;DHT22;44792;52.760;6.726;2022-07-10T06:03:55;15.30;99.90
59007;DHT22;44792;52.760;6.726;2022-07-10T06:06:20;15.30;99.90
59007;DHT22;44792;52.760;6.726;2022-07-10T06:08:46;15.30;99.90
59007;DHT22;44792;52.760;6.726;2022-07-10T06:11:12;15.40;99.90
59007;DHT22;44792;52.760;6.726;2022-07-10T06:13:38;15.40;99.90
59007;DHT22;44792;52.760;6.726;2022-07-10T06:16:04;15.40;99.90
59007;DHT22;44792;52.760;6.726;2022-07-10T06:18:31;15.50;99.90
59007;DHT22;44792;52.760;6.726;2022-07-10T06:20:56;15.50;99.90
59007;DHT22;44792;52.760;6.726;2022-07-10T06:23:22;15.50;99.90
59007;DHT22;44792;52.760;6.726;2022-07-10T06:25:48;15.50;99.90
59007;DHT22;44792;52.760;6.726;2022-07-10T06:28:17;15.50;99.90
59007;DHT22;44792;52.760;6.726;2022-07-10T06:30:43;15.50;99.90
59007;DHT22;44792;52.760;6.726;2022-07-10T06:33:08;15.60;99.90
59007;DHT22;44792;52.760;6.726;2022-07-10T06:35:34;15.60;99.90
59007;DHT22;44792;52.760;6.726;2022-07-10T06:38:00;15.60;99.90
59007;DHT22;44792;52.760;6.726;2022-07-10T06:40:26;15.70;99.90
59007;DHT22;44792;52.760;6.726;2022-07-10T06:42:53;15.70;99.90
59007;DHT22;44792;52.760;6.726;2022-07-10T06:45:19;15.70;99.90
59007;DHT22;44792;52.760;6.726;2022-07-10T06:47:45;15.70;99.90
59007;DHT22;44792;52.760;6.726;2022-07-10T06:50:25;15.80;99.90
59007;DHT22;44792;52.760;6.726;2022-07-10T06:52:51;15.80;99.90
59007;DHT22;44792;52.760;6.726;2022-07-10T06:55:21;15.80;99.90
59007;DHT22;44792;52.760;6.726;2022-07-10T06:57:47;15.90;99.90
59007;DHT22;44792;52.760;6.726;2022-07-10T07:00:12;15.90;99.90
59007;DHT22;44792;52.760;6.726;2022-07-10T07:02:39;15.80;99.90
59007;DHT22;44792;52.760;6.726;2022-07-10T07:05:05;15.90;99.90
59007;DHT22;44792;52.760;6.726;2022-07-10T07:07:31;16.00;99.90
59007;DHT22;44792;52.760;6.726;2022-07-10T07:09:56;16.00;99.90
59007;DHT22;44792;52.760;6.726;2022-07-10T07:12:22;16.00;99.90
59007;DHT22;44792;52.760;6.726;2022-07-10T07:14:48;16.10;99.90
59007;DHT22;44792;52.760;6.726;2022-07-10T07:17:14;16.10;99.90
59007;DHT22;44792;52.760;6.726;2022-07-10T07:19:46;16.10;99.90
59007;DHT22;44792;52.760;6.726;2022-07-10T07:22:30;16.10;99.90
59007;DHT22;44792;52.760;6.726;2022-07-10T07:25:14;16.20;99.90
59007;DHT22;44792;52.760;6.726;2022-07-10T07:27:40;16.30;99.90
59007;DHT22;44792;52.760;6.726;2022-07-10T07:30:08;16.30;99.90
59007;DHT22;44792;52.760;6.726;2022-07-10T07:32:36;16.40;99.90
59007;DHT22;44792;52.760;6.726;2022-07-10T07:35:02;16.50;99.90
59007;DHT22;44792;52.760;6.726;2022-07-10T07:37:39;16.50;99.90
59007;DHT22;44792;52.760;6.726;2022-07-10T07:40:07;16.60;99.90
59007;DHT22;44792;52.760;6.726;2022-07-10T07:42:33;16.60;99.90
59007;DHT22;44792;52.760;6.726;2022-07-10T07:44:59;16.80;99.90
59007;DHT22;44792;52.760;6.726;2022-07-10T07:47:25;16.80;99.90
59007;DHT22;44792;52.760;6.726;2022-07-10T07:49:50;16.70;99.90
59007;DHT22;44792;52.760;6.726;2022-07-10T07:52:16;16.80;99.90
59007;DHT22;44792;52.760;6.726;2022-07-10T07:54:42;16.80;99.90
59007;DHT22;44792;52.760;6.726;2022-07-10T07:57:07;16.90;99.90
59007;DHT22;44792;52.760;6.726;2022-07-10T07:59:33;17.00;99.90
59007;DHT22;44792;52.760;6.726;2022-07-10T08:01:58;17.00;99.90
59007;DHT22;44792;52.760;6.726;2022-07-10T08:04:24;17.10;99.90
59007;DHT22;44792;52.760;6.726;2022-07-10T08:06:50;17.00;99.90
59007;DHT22;44792;52.760;6.726;2022-07-10T08:09:18;17.10;99.90
59007;DHT22;44792;52.760;6.726;2022-07-10T08:11:44;17.20;99.90
59007;DHT22;44792;52.760;6.726;2022-07-10T08:14:10;17.30;99.90
59007;DHT22;44792;52.760;6.726;2022-07-10T08:16:35;17.30;99.90
59007;DHT22;44792;52.760;6.726;2022-07-10T08:19:01;17.40;99.90
59007;DHT22;44792;52.760;6.726;2022-07-10T08:21:26;17.50;99.90
59007;DHT22;44792;52.760;6.726;2022-07-10T08:23:52;17.40;99.90
59007;DHT22;44792;52.760;6.726;2022-07-10T08:26:19;17.30;99.90
59007;DHT22;44792;52.760;6.726;2022-07-10T08:28:45;17.50;99.90
59007;DHT22;44792;52.760;6.726;2022-07-10T08:31:11;17.40;99.90
59007;DHT22;44792;52.760;6.726;2022-07-10T08:33:36;17.30;99.90
59007;DHT22;44792;52.760;6.726;2022-07-10T08:36:02;17.30;99.90
59007;DHT22;44792;52.760;6.726;2022-07-10T08:38:29;17.30;99.90
59007;DHT22;44792;52.760;6.726;2022-07-10T08:40:56;17.30;99.90
59007;DHT22;44792;52.760;6.726;2022-07-10T08:43:23;17.20;99.90
59007;DHT22;44792;52.760;6.726;2022-07-10T08:45:50;17.10;99.90
59007;DHT22;44792;52.760;6.726;2022-07-10T08:48:22;17.00;99.90
59007;DHT22;44792;52.760;6.726;2022-07-10T08:50:52;17.20;99.90
59007;DHT22;44792;52.760;6.726;2022-07-10T08:53:25;17.10;99.90
59007;DHT22;44792;52.760;6.726;2022-07-10T08:55:53;17.10;99.90
59007;DHT22;44792;52.760;6.726;2022-07-10T08:58:20;17.20;99.90
59007;DHT22;44792;52.760;6.726;2022-07-10T09:00:47;17.20;99.90
59007;DHT22;44792;52.760;6.726;2022-07-10T09:03:12;17.20;99.90
59007;DHT22;44792;52.760;6.726;2022-07-10T09:05:38;17.20;99.90
59007;DHT22;44792;52.760;6.726;2022-07-10T09:08:04;17.20;99.90
59007;DHT22;44792;52.760;6.726;2022-07-10T09:10:29;17.10;99.90
59007;DHT22;44792;52.760;6.726;2022-07-10T09:13:01;17.20;99.90
59007;DHT22;44792;52.760;6.726;2022-07-10T09:15:30;17.00;99.90
59007;DHT22;44792;52.760;6.726;2022-07-10T09:18:06;16.90;99.90
59007;DHT22;44792;52.760;6.726;2022-07-10T09:20:39;17.00;99.90
59007;DHT22;44792;52.760;6.726;2022-07-10T09:23:23;17.00;99.90
59007;DHT22;44792;52.760;6.726;2022-07-10T09:25:51;17.10;99.90
59007;DHT22;44792;52.760;6.726;2022-07-10T09:28:21;17.20;99.90
59007;DHT22;44792;52.760;6.726;2022-07-10T09:30:47;17.10;99.90
59007;DHT22;44792;52.760;6.726;2022-07-10T09:33:30;17.20;99.90
59007;DHT22;44792;52.760;6.726;2022-07-10T09:41:25;17.50;99.90
59007;DHT22;44792;52.760;6.726;2022-07-10T09:43:53;17.50;99.90
59007;DHT22;44792;52.760;6.726;2022-07-10T09:51:35;17.50;99.90
59007;DHT22;44792;52.760;6.726;2022-07-10T09:54:02;17.40;99.90
59007;DHT22;44792;52.760;6.726;2022-07-10T09:56:32;17.50;99.90
59007;DHT22;44792;52.760;6.726;2022-07-10T09:58:59;17.40;99.90
59007;DHT22;44792;52.760;6.726;2022-07-10T10:01:27;17.20;99.90
59007;DHT22;44792;52.760;6.726;2022-07-10T10:03:53;17.20;99.90
59007;DHT22;44792;52.760;6.726;2022-07-10T10:06:24;17.20;99.90
59007;DHT22;44792;52.760;6.726;2022-07-10T10:09:02;17.40;99.90
59007;DHT22;44792;52.760;6.726;2022-07-10T10:11:32;17.30;99.90
59007;DHT22;44792;52.760;6.726;2022-07-10T10:13:58;17.20;99.90
59007;DHT22;44792;52.760;6.726;2022-07-10T10:16:25;17.30;99.90
59007;DHT22;44792;52.760;6.726;2022-07-10T10:18:52;17.30;99.90
59007;DHT22;44792;52.760;6.726;2022-07-10T10:21:38;17.40;99.90
59007;DHT22;44792;52.760;6.726;2022-07-10T10:24:04;17.50;99.90
59007;DHT22;44792;52.760;6.726;2022-07-10T10:26:32;17.60;99.90
59007;DHT22;44792;52.760;6.726;2022-07-10T10:29:00;17.70;99.90
59007;DHT22;44792;52.760;6.726;2022-07-10T10:31:29;17.70;99.90
59007;DHT22;44792;52.760;6.726;2022-07-10T10:33:56;17.70;99.90
59007;DHT22;44792;52.760;6.726;2022-07-10T10:39:18;17.40;99.90
59007;DHT22;44792;52.760;6.726;2022-07-10T10:41:54;17.40;99.90
59007;DHT22;44792;52.760;6.726;2022-07-10T10:44:21;17.50;99.90
59007;DHT22;44792;52.760;6.726;2022-07-10T10:49:16;17.30;99.90
59007;DHT22;44792;52.760;6.726;2022-07-10T10:51:58;17.20;99.90
59007;DHT22;44792;52.760;6.726;2022-07-10T10:54:24;17.10;99.90
59007;DHT22;44792;52.760;6.726;2022-07-10T10:57:12;17.20;99.90
59007;DHT22;44792;52.760;6.726;2022-07-10T10:59:51;17.20;99.90
59007;DHT22;44792;52.760;6.726;2022-07-10T11:02:30;17.20;99.90
59007;DHT22;44792;52.760;6.726;2022-07-10T11:15:28;17.40;99.90
59007;DHT22;44792;52.760;6.726;2022-07-10T11:18:12;17.50;99.90
59007;DHT22;44792;52.760;6.726;2022-07-10T11:20:45;17.60;99.90
59007;DHT22;44792;52.760;6.726;2022-07-10T11:26:55;17.70;99.90
59007;DHT22;44792;52.760;6.726;2022-07-10T11:29:24;17.80;99.90
59007;DHT22;44792;52.760;6.726;2022-07-10T11:31:53;17.90;99.90
59007;DHT22;44792;52.760;6.726;2022-07-10T11:34:21;17.90;99.90
59007;DHT22;44792;52.760;6.726;2022-07-10T11:36:47;18.10;99.90
59007;DHT22;44792;52.760;6.726;2022-07-10T11:39:13;18.20;99.90
59007;DHT22;44792;52.760;6.726;2022-07-10T11:41:43;18.20;99.90
59007;DHT22;44792;52.760;6.726;2022-07-10T11:44:14;18.30;99.90
59007;DHT22;44792;52.760;6.726;2022-07-10T11:46:41;18.30;99.90
59007;DHT22;44792;52.760;6.726;2022-07-10T11:49:09;18.30;99.90
59007;DHT22;44792;52.760;6.726;2022-07-10T11:51:37;18.20;99.90
59007;DHT22;44792;52.760;6.726;2022-07-10T11:56:36;18.30;99.90
59007;DHT22;44792;52.760;6.726;2022-07-10T11:59:07;18.30;99.90
59007;DHT22;44792;52.760;6.726;2022-07-10T12:01:40;18.30;99.90
59007;DHT22;44792;52.760;6.726;2022-07-10T12:04:06;18.40;99.90
59007;DHT22;44792;52.760;6.726;2022-07-10T12:06:33;18.40;99.90
59007;DHT22;44792;52.760;6.726;2022-07-10T12:09:10;18.60;99.90
59007;DHT22;44792;52.760;6.726;2022-07-10T12:11:36;18.50;99.90
59007;DHT22;44792;52.760;6.726;2022-07-10T12:14:17;18.50;99.90
59007;DHT22;44792;52.760;6.726;2022-07-10T12:16:48;18.50;99.90
59007;DHT22;44792;52.760;6.726;2022-07-10T12:19:16;18.50;99.90
59007;DHT22;44792;52.760;6.726;2022-07-10T12:21:42;18.40;99.90
59007;DHT22;44792;52.760;6.726;2022-07-10T12:24:09;18.20;99.90
59007;DHT22;44792;52.760;6.726;2022-07-10T12:26:37;18.20;99.90
59007;DHT22;44792;52.760;6.726;2022-07-10T12:29:03;18.20;99.90
59007;DHT22;44792;52.760;6.726;2022-07-10T12:31:31;18.30;99.90
59007;DHT22;44792;52.760;6.726;2022-07-10T12:34:04;18.40;99.90
59007;DHT22;44792;52.760;6.726;2022-07-10T12:36:49;18.40;99.90
59007;DHT22;44792;52.760;6.726;2022-07-10T12:39:19;18.50;99.90
59007;DHT22;44792;52.760;6.726;2022-07-10T12:42:00;18.40;99.90
59007;DHT22;44792;52.760;6.726;2022-07-10T12:44:39;18.40;99.90
59007;DHT22;44792;52.760;6.726;2022-07-10T12:47:11;18.40;99.90
59007;DHT22;44792;52.760;6.726;2022-07-10T12:52:33;18.30;99.90
59007;DHT22;44792;52.760;6.726;2022-07-10T12:55:06;18.40;99.90
59007;DHT22;44792;52.760;6.726;2022-07-10T12:57:45;18.30;99.90
59007;DHT22;44792;52.760;6.726;2022-07-10T13:00:13;18.30;99.90
59007;DHT22;44792;52.760;6.726;2022-07-10T13:02:39;18.30;99.90
59007;DHT22;44792;52.760;6.726;2022-07-10T13:05:05;18.30;99.90
59007;DHT22;44792;52.760;6.726;2022-07-10T13:07:32;18.30;99.90
59007;DHT22;44792;52.760;6.726;2022-07-10T13:10:07;18.30;99.90
59007;DHT22;44792;52.760;6.726;2022-07-10T13:12:34;18.30;99.90
59007;DHT22;44792;52.760;6.726;2022-07-10T13:15:00;18.40;99.90
59007;DHT22;44792;52.760;6.726;2022-07-10T13:17:26;18.40;99.90
59007;DHT22;44792;52.760;6.726;2022-07-10T13:19:52;18.30;99.90
59007;DHT22;44792;52.760;6.726;2022-07-10T13:22:17;18.40;99.90
59007;DHT22;44792;52.760;6.726;2022-07-10T13:24:43;18.30;99.90
59007;DHT22;44792;52.760;6.726;2022-07-10T13:27:09;18.40;99.90
59007;DHT22;44792;52.760;6.726;2022-07-10T13:29:34;18.20;99.90
59007;DHT22;44792;52.760;6.726;2022-07-10T13:32:00;18.50;99.90
59007;DHT22;44792;52.760;6.726;2022-07-10T13:34:26;18.50;99.90
59007;DHT22;44792;52.760;6.726;2022-07-10T13:36:51;18.60;99.90
59007;DHT22;44792;52.760;6.726;2022-07-10T13:39:19;18.70;99.90
59007;DHT22;44792;52.760;6.726;2022-07-10T13:41:45;18.70;99.90
59007;DHT22;44792;52.760;6.726;2022-07-10T13:44:10;18.70;99.90
59007;DHT22;44792;52.760;6.726;2022-07-10T13:46:36;18.80;99.90
59007;DHT22;44792;52.760;6.726;2022-07-10T13:49:03;18.70;99.90
59007;DHT22;44792;52.760;6.726;2022-07-10T13:51:29;18.70;99.90
59007;DHT22;44792;52.760;6.726;2022-07-10T13:53:54;18.80;99.90
59007;DHT22;44792;52.760;6.726;2022-07-10T13:56:20;18.80;99.90
59007;DHT22;44792;52.760;6.726;2022-07-10T13:58:46;18.80;99.90
59007;DHT22;44792;52.760;6.726;2022-07-10T14:01:11;18.80;99.90
59007;DHT22;44792;52.760;6.726;2022-07-10T14:03:37;18.80;99.90
59007;DHT22;44792;52.760;6.726;2022-07-10T14:06:03;18.70;99.90
59007;DHT22;44792;52.760;6.726;2022-07-10T14:08:28;18.70;99.90
59007;DHT22;44792;52.760;6.726;2022-07-10T14:10:54;18.70;99.90
59007;DHT22;44792;52.760;6.726;2022-07-10T14:13:20;18.70;99.90
59007;DHT22;44792;52.760;6.726;2022-07-10T14:15:45;18.70;99.90
59007;DHT22;44792;52.760;6.726;2022-07-10T14:18:11;18.60;99.90
59007;DHT22;44792;52.760;6.726;2022-07-10T14:20:37;18.70;99.90
59007;DHT22;44792;52.760;6.726;2022-07-10T14:23:21;18.70;99.90
59007;DHT22;44792;52.760;6.726;2022-07-10T14:25:47;18.60;99.90
59007;DHT22;44792;52.760;6.726;2022-07-10T14:28:13;18.60;99.90
59007;DHT22;44792;52.760;6.726;2022-07-10T14:30:40;18.60;99.90
59007;DHT22;44792;52.760;6.726;2022-07-10T14:33:05;18.70;99.90
59007;DHT22;44792;52.760;6.726;2022-07-10T14:35:32;18.60;99.90
59007;DHT22;44792;52.760;6.726;2022-07-10T14:37:57;18.60;99.90
59007;DHT22;44792;52.760;6.726;2022-07-10T14:40:23;18.60;99.90
59007;DHT22;44792;52.760;6.726;2022-07-10T14:42:56;18.70;99.90
59007;DHT22;44792;52.760;6.726;2022-07-10T14:45:26;18.70;99.90
59007;DHT22;44792;52.760;6.726;2022-07-10T14:47:51;18.80;99.90
59007;DHT22;44792;52.760;6.726;2022-07-10T14:50:17;18.80;99.90
59007;DHT22;44792;52.760;6.726;2022-07-10T14:52:44;18.80;99.90
59007;DHT22;44792;52.760;6.726;2022-07-10T14:55:14;18.90;99.90
59007;DHT22;44792;52.760;6.726;2022-07-10T14:57:40;18.70;99.90
59007;DHT22;44792;52.760;6.726;2022-07-10T15:00:09;18.80;99.90
59007;DHT22;44792;52.760;6.726;2022-07-10T15:02:43;18.70;99.90
59007;DHT22;44792;52.760;6.726;2022-07-10T15:05:09;18.70;99.90
59007;DHT22;44792;52.760;6.726;2022-07-10T15:07:41;18.70;99.90
59007;DHT22;44792;52.760;6.726;2022-07-10T15:10:10;18.70;99.90
59007;DHT22;44792;52.760;6.726;2022-07-10T15:12:53;18.60;99.90
59007;DHT22;44792;52.760;6.726;2022-07-10T15:15:22;18.60;99.90
59007;DHT22;44792;52.760;6.726;2022-07-10T15:17:50;18.70;99.90
59007;DHT22;44792;52.760;6.726;2022-07-10T15:20:18;18.70;99.90
59007;DHT22;44792;52.760;6.726;2022-07-10T15:22:47;18.70;99.90
59007;DHT22;44792;52.760;6.726;2022-07-10T15:25:19;18.70;99.90
59007;DHT22;44792;52.760;6.726;2022-07-10T15:27:55;18.60;99.90
59007;DHT22;44792;52.760;6.726;2022-07-10T15:30:22;18.70;99.90
59007;DHT22;44792;52.760;6.726;2022-07-10T15:32:48;18.70;99.90
59007;DHT22;44792;52.760;6.726;2022-07-10T15:35:26;18.80;99.90
59007;DHT22;44792;52.760;6.726;2022-07-10T15:37:55;18.90;99.90
59007;DHT22;44792;52.760;6.726;2022-07-10T15:40:22;18.80;99.90
59007;DHT22;44792;52.760;6.726;2022-07-10T15:42:53;18.70;99.90
59007;DHT22;44792;52.760;6.726;2022-07-10T15:45:25;18.70;99.90
59007;DHT22;44792;52.760;6.726;2022-07-10T15:47:53;18.80;99.90
59007;DHT22;44792;52.760;6.726;2022-07-10T15:50:24;18.90;99.90
59007;DHT22;44792;52.760;6.726;2022-07-10T15:52:56;18.80;99.90
59007;DHT22;44792;52.760;6.726;2022-07-10T15:55:22;18.80;99.90
59007;DHT22;44792;52.760;6.726;2022-07-10T15:57:54;18.80;99.90
59007;DHT22;44792;52.760;6.726;2022-07-10T16:00:23;18.90;99.90
59007;DHT22;44792;52.760;6.726;2022-07-10T16:02:49;18.80;99.90
59007;DHT22;44792;52.760;6.726;2022-07-10T16:05:15;18.80;99.90
59007;DHT22;44792;52.760;6.726;2022-07-10T16:07:41;18.80;99.90